createdAt,value
2019-05-20T00:02:24.529Z,18.20
2019-05-20T00:04:50.014Z,18.20
2019-05-20T00:07:22.528Z,18.10
2019-05-20T00:09:55.215Z,18.10
2019-05-20T00:12:30.052Z,18.10
2019-05-20T00:15:07.412Z,18.10
2019-05-20T00:17:39.870Z,18.10
2019-05-20T00:20:13.284Z,18.10
2019-05-20T00:22:45.974Z,18.10
2019-05-20T00:25:18.919Z,18.10
2019-05-20T00:27:51.124Z,18.10
2019-05-20T00:30:23.995Z,18.10
2019-05-20T00:32:56.313Z,18.10
2019-05-20T00:35:29.046Z,18.10
2019-05-20T00:38:01.927Z,18.10
2019-05-20T00:40:34.185Z,18.10
2019-05-20T00:43:07.619Z,18.10
2019-05-20T00:45:40.077Z,18.10
2019-05-20T00:48:12.296Z,18.10
2019-05-20T00:50:44.831Z,18.10
2019-05-20T00:53:17.910Z,18.10
2019-05-20T00:55:50.909Z,18.00
2019-05-20T00:58:23.514Z,18.00
2019-05-20T01:00:56.153Z,18.00
2019-05-20T01:03:28.723Z,18.00
2019-05-20T01:06:01.126Z,18.00
2019-05-20T01:08:33.702Z,18.00
2019-05-20T01:11:06.377Z,18.00
2019-05-20T01:13:38.937Z,18.00
2019-05-20T01:16:11.510Z,18.00
2019-05-20T01:18:44.971Z,17.90
2019-05-20T01:21:17.290Z,17.90
2019-05-20T01:23:50.060Z,17.90
2019-05-20T01:26:22.578Z,17.90
2019-05-20T01:28:54.844Z,17.80
2019-05-20T01:31:27.133Z,17.80
2019-05-20T01:33:59.762Z,17.70
2019-05-20T01:36:32.287Z,17.70
2019-05-20T01:39:06.022Z,17.70
2019-05-20T01:41:38.372Z,17.70
2019-05-20T01:44:11.005Z,17.70
2019-05-20T01:46:43.550Z,17.70
2019-05-20T01:49:16.046Z,17.70
2019-05-20T01:51:48.570Z,17.70
2019-05-20T01:54:21.453Z,17.70
2019-05-20T01:56:53.752Z,17.70
2019-05-20T01:59:27.070Z,17.70
2019-05-20T02:02:00.804Z,17.70
2019-05-20T02:04:33.552Z,17.70
2019-05-20T02:07:06.251Z,17.60
2019-05-20T02:09:38.638Z,17.60
2019-05-20T02:12:10.985Z,17.60
2019-05-20T02:14:49.585Z,17.60
2019-05-20T02:17:21.995Z,17.60
2019-05-20T02:19:54.750Z,17.50
2019-05-20T02:22:27.087Z,17.50
2019-05-20T02:24:59.516Z,17.50
2019-05-20T02:27:31.956Z,17.50
2019-05-20T02:30:05.056Z,17.50
2019-05-20T02:32:37.767Z,17.50
2019-05-20T02:35:10.459Z,17.40
2019-05-20T02:37:42.887Z,17.40
2019-05-20T02:40:15.565Z,17.40
2019-05-20T02:42:47.851Z,17.40
2019-05-20T02:45:20.644Z,17.40
2019-05-20T02:47:53.510Z,17.40
2019-05-20T02:50:25.859Z,17.30
2019-05-20T02:52:59.038Z,17.30
2019-05-20T02:55:31.862Z,17.30
2019-05-20T02:58:04.263Z,17.30
2019-05-20T03:00:36.741Z,17.30
2019-05-20T03:03:09.452Z,17.20
2019-05-20T03:05:42.285Z,17.20
2019-05-20T03:08:14.619Z,17.20
2019-05-20T03:10:47.745Z,17.20
2019-05-20T03:13:20.396Z,17.20
2019-05-20T03:15:52.831Z,17.20
2019-05-20T03:18:25.089Z,17.20
2019-05-20T03:20:57.449Z,17.20
2019-05-20T03:23:30.325Z,17.20
2019-05-20T03:26:02.669Z,17.20
2019-05-20T03:28:35.346Z,17.10
2019-05-20T03:31:07.901Z,17.10
2019-05-20T03:33:40.265Z,17.10
2019-05-20T03:36:13.052Z,17.10
2019-05-20T03:38:45.584Z,17.10
2019-05-20T03:41:18.030Z,17.10
2019-05-20T03:43:50.577Z,17.10
2019-05-20T03:46:23.122Z,17.10
2019-05-20T03:48:55.563Z,17.10
2019-05-20T03:51:27.851Z,17.10
2019-05-20T03:54:00.318Z,17.10
2019-05-20T03:56:32.946Z,17.10
2019-05-20T03:59:05.834Z,17.10
2019-05-20T04:01:38.279Z,17.10
2019-05-20T04:04:11.058Z,17.10
2019-05-20T04:06:44.070Z,17.10
2019-05-20T04:09:17.934Z,17.10
2019-05-20T04:11:50.251Z,17.10
2019-05-20T04:14:23.790Z,17.10
2019-05-20T04:16:56.125Z,17.10
2019-05-20T04:19:28.488Z,17.00
2019-05-20T04:22:01.368Z,17.00
2019-05-20T04:24:34.202Z,17.00
2019-05-20T04:27:06.992Z,17.00
2019-05-20T04:29:39.979Z,16.90
2019-05-20T04:32:12.454Z,16.90
2019-05-20T04:34:46.927Z,16.90
2019-05-20T04:37:19.905Z,16.80
2019-05-20T04:39:52.678Z,16.80
2019-05-20T04:42:25.067Z,16.80
2019-05-20T04:44:57.662Z,16.80
2019-05-20T04:47:30.221Z,16.80
2019-05-20T04:50:02.758Z,16.80
2019-05-20T04:52:36.331Z,16.90
2019-05-20T04:55:09.709Z,16.90
2019-05-20T04:57:42.051Z,16.90
2019-05-20T05:00:15.814Z,16.90
2019-05-20T05:02:48.381Z,17.00
2019-05-20T05:05:35.326Z,17.00
2019-05-20T05:07:55.996Z,17.00
2019-05-20T05:10:28.503Z,17.00
2019-05-20T05:13:00.897Z,17.10
2019-05-20T05:15:33.938Z,17.10
2019-05-20T05:18:07.141Z,17.10
2019-05-20T05:20:39.722Z,17.10
2019-05-20T05:23:12.206Z,17.10
2019-05-20T05:25:44.894Z,17.10
2019-05-20T05:28:17.445Z,17.10
2019-05-20T05:30:50.378Z,17.20
2019-05-20T05:33:23.005Z,17.10
2019-05-20T05:35:55.663Z,17.10
2019-05-20T05:38:28.265Z,17.10
2019-05-20T05:41:00.705Z,17.10
2019-05-20T05:43:33.674Z,17.10
2019-05-20T05:46:06.140Z,17.10
2019-05-20T05:48:38.874Z,17.10
2019-05-20T05:51:11.450Z,17.10
2019-05-20T05:53:43.917Z,17.10
2019-05-20T05:56:16.629Z,17.10
2019-05-20T05:58:49.279Z,17.10
2019-05-20T06:01:22.422Z,17.00
2019-05-20T06:03:56.966Z,17.10
2019-05-20T06:06:29.866Z,17.10
2019-05-20T06:09:02.310Z,17.10
2019-05-20T06:11:36.086Z,17.10
2019-05-20T06:14:08.748Z,17.10
2019-05-20T06:16:41.630Z,17.20
2019-05-20T06:19:13.988Z,17.30
2019-05-20T06:21:46.527Z,17.30
2019-05-20T06:24:19.162Z,17.40
2019-05-20T06:26:52.065Z,17.40
2019-05-20T06:29:24.865Z,17.50
2019-05-20T06:31:57.429Z,17.50
2019-05-20T06:34:30.274Z,17.60
2019-05-20T06:37:05.470Z,17.60
2019-05-20T06:39:38.324Z,17.60
2019-05-20T06:42:11.821Z,17.70
2019-05-20T06:44:52.877Z,17.70
2019-05-20T06:47:19.336Z,17.70
2019-05-20T06:49:53.300Z,17.80
2019-05-20T06:52:35.471Z,17.80
2019-05-20T06:55:00.501Z,17.80
2019-05-20T06:57:33.566Z,17.90
2019-05-20T07:00:07.858Z,17.90
2019-05-20T07:02:41.266Z,17.90
2019-05-20T07:05:14.491Z,18.00
2019-05-20T07:07:47.045Z,18.00
2019-05-20T07:10:19.655Z,18.00
2019-05-20T07:12:52.430Z,18.00
2019-05-20T07:15:25.081Z,18.00
2019-05-20T07:17:57.429Z,18.00
2019-05-20T07:20:30.933Z,18.00
2019-05-20T07:23:03.499Z,18.10
2019-05-20T07:25:36.177Z,18.10
2019-05-20T07:28:08.681Z,18.10
2019-05-20T07:30:41.797Z,18.10
2019-05-20T07:33:15.378Z,18.20
2019-05-20T07:35:48.106Z,18.20
2019-05-20T07:38:20.879Z,18.30
2019-05-20T07:40:53.714Z,18.30
2019-05-20T07:43:26.356Z,18.40
2019-05-20T07:45:59.022Z,18.40
2019-05-20T07:48:32.859Z,18.40
2019-05-20T07:51:05.708Z,18.40
2019-05-20T07:53:38.280Z,18.40
2019-05-20T07:56:15.775Z,18.50
2019-05-20T07:58:51.434Z,18.40
2019-05-20T08:01:24.633Z,18.50
2019-05-20T08:03:57.483Z,18.50
2019-05-20T08:06:29.945Z,18.50
2019-05-20T08:09:03.060Z,18.50
2019-05-20T08:11:37.065Z,18.50
2019-05-20T08:14:09.629Z,18.60
2019-05-20T08:16:42.043Z,18.70
2019-05-20T08:19:14.487Z,18.70
2019-05-20T08:21:46.766Z,18.80
2019-05-20T08:24:19.041Z,18.80
2019-05-20T08:26:51.305Z,18.90
2019-05-20T08:29:23.839Z,18.90
2019-05-20T08:31:56.494Z,18.90
2019-05-20T08:36:49.089Z,19.00
2019-05-20T08:39:21.575Z,19.00
2019-05-20T08:41:54.261Z,19.00
2019-05-20T08:44:27.093Z,19.10
2019-05-20T08:46:59.556Z,19.10
2019-05-20T08:49:32.802Z,19.10
2019-05-20T08:52:05.446Z,19.10
2019-05-20T08:54:40.307Z,19.10
2019-05-20T08:57:12.284Z,19.20
2019-05-20T08:59:45.978Z,19.20
2019-05-20T09:02:18.942Z,19.20
2019-05-20T09:04:52.710Z,19.20
2019-05-20T09:07:25.801Z,19.20
2019-05-20T09:09:58.913Z,19.20
2019-05-20T09:12:31.514Z,19.30
2019-05-20T09:15:05.262Z,19.30
2019-05-20T09:17:39.262Z,19.30
2019-05-20T09:20:13.021Z,19.30
2019-05-20T09:22:45.735Z,19.30
2019-05-20T09:25:22.830Z,19.40
2019-05-20T09:27:55.516Z,19.40
2019-05-20T09:30:28.278Z,19.50
2019-05-20T09:33:01.272Z,19.50
2019-05-20T09:35:33.676Z,19.50
2019-05-20T09:38:19.688Z,19.60
2019-05-20T09:40:44.167Z,19.60
2019-05-20T09:43:17.031Z,19.60
2019-05-20T09:46:05.719Z,19.70
2019-05-20T09:48:25.566Z,19.80
2019-05-20T09:50:58.479Z,19.80
2019-05-20T09:53:31.254Z,19.80
2019-05-20T09:56:03.876Z,19.90
2019-05-20T09:58:36.556Z,20.00
2019-05-20T10:01:09.040Z,20.00
2019-05-20T10:03:42.032Z,20.00
2019-05-20T10:06:14.717Z,20.10
2019-05-20T10:08:47.202Z,20.20
2019-05-20T10:11:19.755Z,20.20
2019-05-20T10:13:52.982Z,20.20
2019-05-20T10:16:26.050Z,20.20
2019-05-20T10:18:58.845Z,20.30
2019-05-20T10:21:31.267Z,20.40
2019-05-20T10:24:04.142Z,20.40
2019-05-20T10:26:37.428Z,20.40
2019-05-20T10:29:10.094Z,20.50
2019-05-20T10:31:42.636Z,20.50
2019-05-20T10:34:15.577Z,20.50
2019-05-20T10:36:48.568Z,20.50
2019-05-20T10:39:21.030Z,20.60
2019-05-20T10:41:53.812Z,20.50
2019-05-20T10:44:26.280Z,20.60
2019-05-20T10:46:59.240Z,20.60
2019-05-20T10:49:32.094Z,20.60
2019-05-20T10:52:04.464Z,20.60
2019-05-20T10:54:37.838Z,20.70
2019-05-20T10:57:10.485Z,20.70
2019-05-20T10:59:43.165Z,20.70
2019-05-20T11:02:19.241Z,20.70
2019-05-20T11:04:52.035Z,20.70
2019-05-20T11:07:24.789Z,20.70
2019-05-20T11:09:57.572Z,20.80
2019-05-20T11:12:30.318Z,20.70
2019-05-20T11:15:04.810Z,20.80
2019-05-20T11:17:39.574Z,20.80
2019-05-20T11:20:14.047Z,20.80
2019-05-20T11:22:49.171Z,20.80
2019-05-20T11:25:22.789Z,20.80
2019-05-20T11:28:02.358Z,20.90
2019-05-20T11:30:38.890Z,20.90
2019-05-20T11:33:11.346Z,20.90
2019-05-20T11:35:44.133Z,20.90
2019-05-20T11:38:17.320Z,20.90
2019-05-20T11:40:49.945Z,21.00
2019-05-20T11:43:22.290Z,21.00
2019-05-20T11:45:54.782Z,21.00
2019-05-20T11:48:27.173Z,21.00
2019-05-20T11:50:59.418Z,21.10
2019-05-20T11:53:32.030Z,21.10
2019-05-20T11:56:05.462Z,21.10
2019-05-20T11:58:38.651Z,21.10
2019-05-20T12:01:13.454Z,21.20
2019-05-20T12:03:46.258Z,21.20
2019-05-20T12:06:20.213Z,21.20
2019-05-20T12:08:53.294Z,21.20
2019-05-20T12:11:26.919Z,21.20
2019-05-20T12:14:00.267Z,21.20
2019-05-20T12:16:32.843Z,21.20
2019-05-20T12:19:06.113Z,21.20
2019-05-20T12:21:39.098Z,21.20
2019-05-20T12:24:11.597Z,21.10
2019-05-20T12:26:44.130Z,21.10
2019-05-20T12:29:17.030Z,21.10
2019-05-20T12:31:49.910Z,21.10
2019-05-20T12:34:22.956Z,21.20
2019-05-20T12:36:56.393Z,21.20
2019-05-20T12:39:29.392Z,21.30
2019-05-20T12:42:02.394Z,21.30
2019-05-20T12:44:37.189Z,21.40
2019-05-20T12:47:09.651Z,21.40
2019-05-20T12:49:42.708Z,21.50
2019-05-20T12:52:15.416Z,21.50
2019-05-20T12:55:04.238Z,21.50
2019-05-20T12:57:22.977Z,21.50
2019-05-20T12:59:55.405Z,21.60
2019-05-20T13:02:27.895Z,21.50
2019-05-20T13:05:00.791Z,21.50
2019-05-20T13:07:34.438Z,21.50
2019-05-20T13:10:26.661Z,21.50
2019-05-20T13:12:42.174Z,21.50
2019-05-20T13:15:15.062Z,21.50
2019-05-20T13:17:48.098Z,21.50
2019-05-20T13:20:21.611Z,21.50
2019-05-20T13:22:54.259Z,21.50
2019-05-20T13:25:27.063Z,21.50
2019-05-20T13:27:59.672Z,21.50
2019-05-20T13:30:33.413Z,21.50
2019-05-20T13:33:05.787Z,21.50
2019-05-20T13:35:38.719Z,21.50
2019-05-20T13:38:11.517Z,21.50
2019-05-20T13:40:47.096Z,21.50
2019-05-20T13:43:19.019Z,21.50
2019-05-20T13:45:51.772Z,21.50
2019-05-20T13:48:25.530Z,21.40
2019-05-20T13:50:58.113Z,21.40
2019-05-20T13:53:32.305Z,21.50
2019-05-20T13:56:05.496Z,21.50
2019-05-20T13:58:38.513Z,21.40
2019-05-20T14:01:11.014Z,21.40
2019-05-20T14:03:43.834Z,21.40
2019-05-20T14:06:16.456Z,21.40
2019-05-20T14:08:49.170Z,21.40
2019-05-20T14:11:33.884Z,21.40
2019-05-20T14:13:56.126Z,21.50
2019-05-20T14:16:28.583Z,21.40
2019-05-20T14:19:01.062Z,21.40
2019-05-20T14:21:33.467Z,21.40
2019-05-20T14:24:06.773Z,21.40
2019-05-20T14:26:40.144Z,21.40
2019-05-20T14:29:15.772Z,21.40
2019-05-20T14:31:48.330Z,21.40
2019-05-20T14:34:20.959Z,21.40
2019-05-20T14:36:54.024Z,21.40
2019-05-20T14:39:26.782Z,21.40
2019-05-20T14:41:59.392Z,21.40
2019-05-20T14:44:31.991Z,21.30
2019-05-20T14:47:04.397Z,21.30
2019-05-20T14:49:37.205Z,21.30
2019-05-20T14:52:10.238Z,21.30
2019-05-20T14:54:43.159Z,21.30
2019-05-20T14:57:15.991Z,21.30
2019-05-20T14:59:48.726Z,21.30
2019-05-20T15:02:21.571Z,21.20
2019-05-20T15:04:54.837Z,21.20
2019-05-20T15:07:30.729Z,21.20
2019-05-20T15:10:03.510Z,21.10
2019-05-20T15:12:37.182Z,21.10
2019-05-20T15:15:10.782Z,21.10
2019-05-20T15:17:43.457Z,21.00
2019-05-20T15:20:17.473Z,21.00
2019-05-20T15:22:50.075Z,21.00
2019-05-20T15:25:22.737Z,21.00
2019-05-20T15:27:55.106Z,21.00
2019-05-20T15:30:28.019Z,20.90
2019-05-20T15:33:01.150Z,20.90
2019-05-20T15:35:34.878Z,20.90
2019-05-20T15:38:08.029Z,20.90
2019-05-20T15:40:41.056Z,20.90
2019-05-20T15:43:13.965Z,20.90
2019-05-20T15:45:47.673Z,20.80
2019-05-20T15:48:22.533Z,20.80
2019-05-20T15:50:56.282Z,20.70
2019-05-20T15:53:30.616Z,20.70
2019-05-20T15:56:03.394Z,20.60
2019-05-20T15:58:36.901Z,20.50
2019-05-20T16:01:09.870Z,20.30
2019-05-20T16:03:42.467Z,20.20
2019-05-20T16:06:15.411Z,20.00
2019-05-20T16:08:48.355Z,19.80
2019-05-20T16:11:20.988Z,19.70
2019-05-20T16:13:53.449Z,19.60
2019-05-20T16:16:25.850Z,19.50
2019-05-20T16:18:58.639Z,19.40
2019-05-20T16:21:32.474Z,19.40
2019-05-20T16:24:05.225Z,19.30
2019-05-20T16:26:38.081Z,19.30
2019-05-20T16:29:11.180Z,19.20
2019-05-20T16:31:43.633Z,19.10
2019-05-20T16:34:16.186Z,19.10
2019-05-20T16:36:48.588Z,19.00
2019-05-20T16:39:21.129Z,19.00
2019-05-20T16:41:53.746Z,18.90
2019-05-20T16:44:26.135Z,18.90
2019-05-20T16:46:58.792Z,18.80
2019-05-20T16:49:31.104Z,18.80
2019-05-20T16:52:04.339Z,18.70
2019-05-20T16:54:37.145Z,18.70
2019-05-20T16:57:09.560Z,18.60
2019-05-20T16:59:42.315Z,18.50
2019-05-20T17:02:14.904Z,18.50
2019-05-20T17:04:47.458Z,18.50
2019-05-20T17:07:20.096Z,18.50
2019-05-20T17:09:52.657Z,18.40
2019-05-20T17:12:26.611Z,18.40
2019-05-20T17:15:03.065Z,18.40
2019-05-20T17:17:38.678Z,18.40
2019-05-20T17:20:11.740Z,18.30
2019-05-20T17:22:44.399Z,18.30
2019-05-20T17:25:18.143Z,18.30
2019-05-20T17:27:52.586Z,18.20
2019-05-20T17:30:25.717Z,18.20
2019-05-20T17:32:59.378Z,18.20
2019-05-20T17:35:32.034Z,18.20
2019-05-20T17:38:04.612Z,18.20
2019-05-20T17:40:37.577Z,18.20
2019-05-20T17:43:09.869Z,18.10
2019-05-20T17:45:42.281Z,18.10
2019-05-20T17:48:15.357Z,18.10
2019-05-20T17:50:47.576Z,18.10
2019-05-20T17:53:20.038Z,18.10
2019-05-20T17:55:52.266Z,18.10
2019-05-20T17:58:24.879Z,18.10
2019-05-20T18:01:12.171Z,18.00
2019-05-20T18:03:31.734Z,18.00
2019-05-20T18:06:04.478Z,18.00
2019-05-20T18:08:40.051Z,18.00
2019-05-20T18:11:13.633Z,17.90
2019-05-20T18:13:46.260Z,17.90
2019-05-20T18:16:19.829Z,17.90
2019-05-20T18:18:55.221Z,17.90
2019-05-20T18:21:29.141Z,17.90
2019-05-20T18:24:01.522Z,17.80
2019-05-20T18:26:34.107Z,17.80
2019-05-20T18:29:08.344Z,17.80
2019-05-20T18:31:40.764Z,17.80
2019-05-20T18:34:14.490Z,17.90
2019-05-20T18:36:46.896Z,17.90
2019-05-20T18:39:19.518Z,17.90
2019-05-20T18:41:52.107Z,17.90
2019-05-20T18:44:24.693Z,17.90
2019-05-20T18:46:57.257Z,17.90
2019-05-20T18:49:29.640Z,17.90
2019-05-20T18:52:01.962Z,17.90
2019-05-20T18:54:34.421Z,17.80
2019-05-20T18:57:06.753Z,17.80
2019-05-20T18:59:39.997Z,17.80
2019-05-20T19:02:12.838Z,17.80
2019-05-20T19:04:45.519Z,17.80
2019-05-20T19:07:18.709Z,17.70
2019-05-20T19:09:51.385Z,17.70
2019-05-20T19:12:24.046Z,17.70
2019-05-20T19:14:56.471Z,17.70
2019-05-20T19:17:29.173Z,17.70
2019-05-20T19:20:01.770Z,17.70
2019-05-20T19:22:34.426Z,17.70
2019-05-20T19:25:07.272Z,17.70
2019-05-20T19:27:40.239Z,17.80
2019-05-20T19:30:15.063Z,17.80
2019-05-20T19:32:50.037Z,17.80
2019-05-20T19:35:25.722Z,17.80
2019-05-20T19:37:59.202Z,17.80
2019-05-20T19:40:31.874Z,17.80
2019-05-20T19:43:04.420Z,17.80
2019-05-20T19:45:38.580Z,17.80
2019-05-20T19:48:11.125Z,17.70
2019-05-20T19:50:44.593Z,17.80
2019-05-20T19:53:21.789Z,17.80
2019-05-20T19:55:54.629Z,17.80
2019-05-20T19:58:28.528Z,17.80
2019-05-20T20:01:01.103Z,17.80
2019-05-20T20:03:33.727Z,17.80
2019-05-20T20:06:06.449Z,17.80
2019-05-20T20:08:39.525Z,17.80
2019-05-20T20:11:11.861Z,17.80
2019-05-20T20:13:46.550Z,17.80
2019-05-20T20:16:20.611Z,17.80
2019-05-20T20:18:53.112Z,17.80
2019-05-20T20:21:25.763Z,17.80
2019-05-20T20:23:58.451Z,17.80
2019-05-20T20:26:31.481Z,17.80
2019-05-20T20:29:04.097Z,17.80
2019-05-20T20:31:36.816Z,17.80
2019-05-20T20:34:09.213Z,17.80
2019-05-20T20:36:42.026Z,17.80
2019-05-20T20:39:14.383Z,17.70
2019-05-20T20:41:48.079Z,17.70
2019-05-20T20:44:20.629Z,17.70
2019-05-20T20:46:53.062Z,17.70
2019-05-20T20:49:26.085Z,17.70
2019-05-20T20:51:58.976Z,17.70
2019-05-20T20:54:31.569Z,17.70
2019-05-20T20:57:04.589Z,17.70
2019-05-20T20:59:36.880Z,17.70
2019-05-20T21:02:09.494Z,17.70
2019-05-20T21:04:42.332Z,17.70
2019-05-20T21:07:14.859Z,17.70
2019-05-20T21:09:47.367Z,17.70
2019-05-20T21:12:19.797Z,17.70
2019-05-20T21:14:52.232Z,17.70
2019-05-20T21:17:24.853Z,17.60
2019-05-20T21:19:58.711Z,17.70
2019-05-20T21:22:31.229Z,17.70
2019-05-20T21:25:03.878Z,17.60
2019-05-20T21:27:39.182Z,17.60
2019-05-20T21:30:13.233Z,17.60
2019-05-20T21:32:45.763Z,17.60
2019-05-20T21:35:18.156Z,17.60
2019-05-20T21:37:50.528Z,17.60
2019-05-20T21:40:22.870Z,17.50
2019-05-20T21:42:57.590Z,17.50
2019-05-20T21:45:30.387Z,17.50
2019-05-20T21:48:02.738Z,17.50
2019-05-20T21:50:36.178Z,17.50
2019-05-20T21:53:08.824Z,17.60
2019-05-20T21:55:41.038Z,17.60
2019-05-20T21:58:13.293Z,17.60
2019-05-20T22:00:50.859Z,17.60
2019-05-20T22:03:24.880Z,17.60
2019-05-20T22:05:58.320Z,17.60
2019-05-20T22:08:30.934Z,17.60
2019-05-20T22:11:03.506Z,17.60
2019-05-20T22:13:35.808Z,17.60
2019-05-20T22:16:08.286Z,17.60
2019-05-20T22:18:41.184Z,17.60
2019-05-20T22:21:15.239Z,17.60
2019-05-20T22:23:57.500Z,17.60
2019-05-20T22:26:30.832Z,17.60
2019-05-20T22:29:03.383Z,17.60
2019-05-20T22:31:35.925Z,17.60
2019-05-20T22:34:08.432Z,17.50
2019-05-20T22:36:40.836Z,17.50
2019-05-20T22:39:13.374Z,17.50
2019-05-20T22:41:45.710Z,17.50
2019-05-20T22:44:18.395Z,17.50
2019-05-20T22:46:50.725Z,17.50
2019-05-20T22:49:23.377Z,17.50
2019-05-20T22:51:55.667Z,17.50
2019-05-20T22:54:28.140Z,17.50
2019-05-20T22:57:00.460Z,17.40
2019-05-20T22:59:32.788Z,17.40
2019-05-20T23:02:05.174Z,17.40
2019-05-20T23:04:38.921Z,17.40
2019-05-20T23:07:11.220Z,17.40
2019-05-20T23:09:43.989Z,17.40
2019-05-20T23:12:16.445Z,17.40
2019-05-20T23:14:49.006Z,17.40
2019-05-20T23:17:21.601Z,17.40
2019-05-20T23:19:54.233Z,17.40
2019-05-20T23:22:26.500Z,17.40
2019-05-20T23:24:59.368Z,17.40
2019-05-20T23:27:31.664Z,17.40
2019-05-20T23:30:04.347Z,17.40
2019-05-20T23:32:36.714Z,17.40
2019-05-20T23:35:09.360Z,17.40
2019-05-20T23:37:41.978Z,17.40
2019-05-20T23:40:14.406Z,17.40
2019-05-20T23:42:47.059Z,17.50
2019-05-20T23:45:19.351Z,17.50
2019-05-20T23:47:51.664Z,17.50
2019-05-20T23:50:24.054Z,17.50
2019-05-20T23:52:56.392Z,17.50
2019-05-20T23:55:28.849Z,17.50
2019-05-20T23:58:01.360Z,17.50
